Time;durP1;ratioP1;P1;durP2;ratioP2;P2;SDS_P1;SDS_P2;PMS_P1;PMS_P2;Temp;Humidity;BMP_temperature;BMP_pressure;BME280_temperature;BME280_humidity;BME280_pressure;Samples;Min_cycle;Max_cycle;Signal;HPM_P1;HPM_P2
2020/12/01 00:02:40;;;;;;;59.23;29.47;;;;;;;-0.08;76.06;100671.59;2197042;79;29906;-71
2020/12/01 00:05:43;;;;;;;67.92;33.78;;;;;;;-0.06;76.04;100674.25;2194662;79;27602;-77
2020/12/01 00:08:45;;;;;;;69.22;33.98;;;;;;;-0.05;76.03;100668.11;2134576;79;28812;-77
2020/12/01 00:11:47;;;;;;;65.62;35.78;;;;;;;-0.03;75.98;100671.17;2220093;79;31117;-72
2020/12/01 00:14:49;;;;;;;71.07;35.68;;;;;;;-0.02;75.95;100664.16;2219510;79;33244;-78
2020/12/01 00:17:51;;;;;;;65.10;32.40;;;;;;;0.01;75.91;100664.59;2219909;79;28731;-73
2020/12/01 00:20:54;;;;;;;63.95;31.75;;;;;;;0.01;75.99;100661.95;2194348;79;27629;-77
2020/12/01 00:23:57;;;;;;;61.20;32.50;;;;;;;0.04;75.95;100658.02;2188335;79;28591;-77
2020/12/01 00:26:59;;;;;;;62.93;31.35;;;;;;;0.05;75.97;100649.23;2188346;80;31146;-75
2020/12/01 00:30:08;;;;;;;63.75;31.93;;;;;;;0.07;75.90;100648.34;2178096;81;33186;-77
2020/12/01 00:33:11;;;;;;;65.92;34.33;;;;;;;0.08;75.97;100647.47;2218209;80;29937;-73
2020/12/01 00:36:14;;;;;;;64.22;31.73;;;;;;;0.13;76.00;100641.77;2152510;80;27667;-74
2020/12/01 00:39:16;;;;;;;62.90;31.87;;;;;;;0.15;75.97;100636.48;2194488;78;28812;-75
2020/12/01 00:42:18;;;;;;;64.07;33.42;;;;;;;0.19;75.98;100632.97;2210622;80;30919;-77
2020/12/01 00:45:21;;;;;;;58.42;32.53;;;;;;;0.23;75.98;100629.87;2198669;80;33385;-74
2020/12/01 00:48:23;;;;;;;62.98;31.52;;;;;;;0.28;75.95;100630.76;2188200;80;28940;-68
2020/12/01 00:51:26;;;;;;;58.38;29.90;;;;;;;0.30;75.94;100631.18;2161573;80;27738;-66
2020/12/01 00:54:28;;;;;;;55.35;29.75;;;;;;;0.36;75.87;100626.79;2228113;78;28936;-65
2020/12/01 00:57:30;;;;;;;55.15;29.10;;;;;;;0.42;75.90;100626.33;2200034;80;31153;-68
2020/12/01 01:00:32;;;;;;;55.40;30.08;;;;;;;0.48;75.86;100619.30;2163366;80;32298;-66
2020/12/01 01:03:34;;;;;;;56.83;28.75;;;;;;;0.53;75.89;100626.30;2175603;78;29791;-65
2020/12/01 01:06:37;;;;;;;54.60;27.02;;;;;;;0.62;75.85;100627.14;2200610;80;27655;-69
2020/12/01 01:09:39;;;;;;;52.90;28.00;;;;;;;0.65;75.79;100629.34;2164846;80;29235;-75
2020/12/01 01:12:41;;;;;;;54.05;28.30;;;;;;;0.71;75.71;100611.30;2227179;78;31118;-67
2020/12/01 01:15:44;;;;;;;57.05;28.87;;;;;;;0.77;75.72;100622.27;2161091;81;33205;-72
2020/12/01 01:18:46;;;;;;;49.10;27.10;;;;;;;0.81;75.60;100612.14;2187487;80;28871;-65
2020/12/01 01:21:49;;;;;;;51.48;26.10;;;;;;;0.83;75.50;100604.65;2153166;80;27681;-66
2020/12/01 01:24:51;;;;;;;50.10;26.35;;;;;;;0.86;75.44;100598.47;2221240;78;29021;-66
2020/12/01 01:27:53;;;;;;;47.25;25.77;;;;;;;0.90;75.55;100593.63;2201079;78;31737;-66
2020/12/01 01:30:56;;;;;;;52.10;27.27;;;;;;;0.96;75.50;100591.39;2185170;80;33257;-65
2020/12/01 01:33:58;;;;;;;51.02;27.52;;;;;;;1.04;75.54;100596.20;2169055;78;28603;-66
2020/12/01 01:37:00;;;;;;;51.50;26.50;;;;;;;1.10;75.38;100601.88;2132920;80;27728;-68
2020/12/01 01:40:06;;;;;;;47.62;25.40;;;;;;;1.12;75.22;100586.46;2161555;80;29795;-65
2020/12/01 01:43:10;;;;;;;53.58;26.55;;;;;;;1.15;74.97;100590.87;2187325;80;31864;-66
2020/12/01 01:46:39;;;;;;;58.13;28.70;;;;;;;1.14;74.96;100583.83;2197607;78;33463;-65
2020/12/01 01:49:42;;;;;;;56.53;28.15;;;;;;;1.14;75.01;100581.20;2146414;82;28887;-69
2020/12/01 01:52:49;;;;;;;54.95;28.15;;;;;;;1.12;74.91;100563.17;2122531;82;27902;-73
2020/12/01 01:55:55;;;;;;;55.58;28.12;;;;;;;1.11;74.84;100566.70;2101117;82;29577;-65
2020/12/01 01:58:59;;;;;;;52.40;29.32;;;;;;;1.10;74.82;100564.48;2147842;81;31234;-77
2020/12/01 02:02:02;;;;;;;49.85;26.68;;;;;;;1.12;74.82;100564.49;2116806;83;33199;-67
2020/12/01 02:05:04;;;;;;;55.23;29.52;;;;;;;1.09;74.58;100557.45;2108465;83;29379;-68
2020/12/01 02:08:06;;;;;;;47.88;25.35;;;;;;;1.08;74.69;100554.84;2133463;83;28279;-70
2020/12/01 02:11:09;;;;;;;47.17;25.43;;;;;;;1.08;74.62;100555.70;2108542;83;28038;-76
2020/12/01 02:14:22;;;;;;;43.10;23.00;;;;;;;1.08;74.65;100546.46;2139920;83;31183;-73
2020/12/01 02:17:31;;;;;;;37.00;21.10;;;;;;;1.12;74.55;100547.34;2133560;83;34007;-67
2020/12/01 02:20:36;;;;;;;37.28;20.88;;;;;;;1.16;74.56;100539.39;2109262;83;29729;-64
2020/12/01 02:23:49;;;;;;;35.07;21.53;;;;;;;1.26;74.41;100534.92;2355916;74;27707;-69
2020/12/01 02:26:55;;;;;;;37.20;21.37;;;;;;;1.25;74.38;100524.36;2256231;77;27870;-65
2020/12/01 02:29:59;;;;;;;35.80;20.72;;;;;;;1.28;74.15;100527.88;2284472;77;28814;-74
2020/12/01 02:33:01;;;;;;;42.23;23.47;;;;;;;1.28;74.09;100521.70;2282661;77;32179;-71
2020/12/01 02:36:04;;;;;;;37.98;20.20;;;;;;;1.30;74.26;100518.19;2255889;77;33785;-69
2020/12/01 02:39:08;;;;;;;34.23;19.70;;;;;;;1.33;74.06;100520.77;2282207;77;29492;-71
2020/12/01 02:42:15;;;;;;;27.95;16.30;;;;;;;1.33;74.04;100511.53;2255636;77;27736;-67
2020/12/01 02:45:17;;;;;;;32.85;19.82;;;;;;;1.34;73.52;100509.33;2300607;75;28481;-71
2020/12/01 02:48:19;;;;;;;31.97;18.73;;;;;;;1.34;73.85;100514.61;2294540;75;31273;-73
2020/12/01 02:51:22;;;;;;;35.30;19.17;;;;;;;1.34;73.72;100500.09;2296126;75;32903;-75
2020/12/01 02:54:24;;;;;;;30.72;18.02;;;;;;;1.35;73.67;100503.62;2289996;75;28855;-67
2020/12/01 02:57:26;;;;;;;28.92;17.85;;;;;;;1.38;73.79;100506.67;2228761;77;27637;-67
2020/12/01 03:00:28;;;;;;;31.37;17.48;;;;;;;1.41;73.49;100504.01;2224369;75;28691;-68
2020/12/01 03:03:30;;;;;;;28.73;16.93;;;;;;;1.44;73.47;100499.56;2286843;75;30915;-66
2020/12/01 03:06:33;;;;;;;29.40;16.87;;;;;;;1.46;73.40;100490.34;2238892;75;33432;-67
2020/12/01 03:09:35;;;;;;;27.55;15.90;;;;;;;1.48;73.22;100496.48;2288784;75;29954;-67
2020/12/01 03:12:38;;;;;;;27.62;15.88;;;;;;;1.50;73.33;100493.35;2267952;75;27646;-66
2020/12/01 03:15:41;;;;;;;23.05;13.98;;;;;;;1.51;72.99;100489.83;2281892;77;28817;-65
2020/12/01 03:18:45;;;;;;;23.50;14.15;;;;;;;1.53;72.98;100478.81;2312981;77;32262;-66
2020/12/01 03:21:48;;;;;;;24.00;13.93;;;;;;;1.54;72.97;100474.42;2282024;75;34029;-71
2020/12/01 03:24:50;;;;;;;24.82;14.58;;;;;;;1.55;72.86;100473.53;2222368;75;30116;-66
2020/12/01 03:27:53;;;;;;;24.87;14.40;;;;;;;1.52;72.60;100483.66;2296726;75;27660;-66
2020/12/01 03:30:55;;;;;;;24.25;13.98;;;;;;;1.51;72.82;100472.23;2261662;77;28501;-75
2020/12/01 03:33:58;;;;;;;25.30;15.32;;;;;;;1.48;72.53;100466.98;2254186;77;31161;-73
2020/12/01 03:37:00;;;;;;;24.15;14.13;;;;;;;1.51;72.78;100467.38;2254861;77;33615;-68
2020/12/01 03:40:04;;;;;;;21.95;12.25;;;;;;;1.49;72.37;100463.91;2244914;77;28963;-65
2020/12/01 03:43:06;;;;;;;24.92;12.07;;;;;;;1.48;72.30;100478.00;2254114;77;28200;-76
2020/12/01 03:46:09;;;;;;;23.27;11.97;;;;;;;1.49;72.38;100475.33;2338714;75;28802;-65
2020/12/01 03:49:11;;;;;;;21.12;13.60;;;;;;;1.52;72.24;100466.50;2293983;75;31223;-79
2020/12/01 03:52:13;;;;;;;19.67;11.90;;;;;;;1.55;72.39;100469.58;2278102;77;33115;-67
2020/12/01 03:55:15;;;;;;;23.47;13.83;;;;;;;1.58;72.22;100464.23;2224777;77;28618;-70
2020/12/01 03:58:18;;;;;;;26.90;13.88;;;;;;;1.59;72.35;100465.56;2281304;77;27774;-69
2020/12/01 04:01:20;;;;;;;22.93;12.75;;;;;;;1.61;72.37;100458.50;2281840;75;28811;-67
2020/12/01 04:04:28;;;;;;;25.80;12.98;;;;;;;1.65;72.39;100463.30;2295996;75;31177;-68
2020/12/01 04:07:26;;;;;;;18.80;11.65;;;;;;;1.65;72.10;100460.66;2293845;75;32979;-66
2020/12/01 04:10:29;;;;;;;22.40;13.40;;;;;;;1.65;72.04;100454.05;2255451;77;28697;-65
2020/12/01 04:13:33;;;;;;;24.05;13.83;;;;;;;1.63;71.92;100458.05;2323545;75;27670;-66
2020/12/01 04:16:35;;;;;;;23.07;13.98;;;;;;;1.64;72.08;100458.48;2289095;75;28824;-73
2020/12/01 04:19:38;;;;;;;24.00;14.95;;;;;;;1.65;72.09;100460.66;2294663;75;31145;-67
2020/12/01 04:22:40;;;;;;;23.15;13.83;;;;;;;1.66;72.07;100463.73;2280245;76;33107;-66
2020/12/01 04:25:42;;;;;;;22.07;14.00;;;;;;;1.65;71.68;100461.55;2285458;77;28421;-67
2020/12/01 04:28:44;;;;;;;24.57;14.25;;;;;;;1.62;71.80;100458.94;2275921;77;27641;-71
2020/12/01 04:31:46;;;;;;;33.35;16.00;;;;;;;1.62;71.71;100466.86;2276086;77;28918;-66
2020/12/01 04:34:49;;;;;;;26.82;15.58;;;;;;;1.63;71.92;100460.69;2244073;77;31822;-66
2020/12/01 04:37:55;;;;;;;27.32;16.07;;;;;;;1.61;71.65;100462.46;2161960;80;34033;-69
2020/12/01 04:40:57;;;;;;;32.85;17.67;;;;;;;1.62;71.80;100462.89;2242750;78;28617;-72
2020/12/01 04:44:03;;;;;;;30.72;16.70;;;;;;;1.61;71.69;100458.50;2221574;79;27679;-68
2020/12/01 04:47:16;;;;;;;26.70;15.70;;;;;;;1.60;71.58;100457.17;2257926;78;28813;-71
2020/12/01 04:50:35;;;;;;;30.72;17.50;;;;;;;1.55;71.29;100463.83;2172250;80;31137;-68
2020/12/01 04:53:58;;;;;;;28.73;15.78;;;;;;;1.49;71.43;100463.91;2186399;80;32876;-65
2020/12/01 04:57:25;;;;;;;29.85;17.30;;;;;;;1.41;71.33;100466.59;2210013;80;28852;-66
2020/12/01 05:01:01;;;;;;;35.08;19.23;;;;;;;1.33;71.38;100465.34;2186335;80;27594;-65
2020/12/01 05:04:25;;;;;;;32.00;17.42;;;;;;;1.27;71.55;100464.53;2205123;78;28875;-75
2020/12/01 05:08:20;;;;;;;38.63;19.25;;;;;;;1.19;71.47;100460.20;2173587;80;30701;-67
2020/12/01 05:11:58;;;;;;;31.10;17.30;;;;;;;1.09;71.38;100459.83;2199448;80;34488;-67
2020/12/01 05:15:15;;;;;;;38.13;21.65;;;;;;;0.98;71.40;100451.14;2174149;80;29810;-69
2020/12/01 05:18:32;;;;;;;50.35;25.55;;;;;;;0.85;71.60;100460.47;2141808;83;27623;-65
2020/12/01 05:21:34;;;;;;;54.10;27.77;;;;;;;0.82;71.80;100465.75;2120277;83;28904;-65
2020/12/01 05:24:39;;;;;;;49.80;26.33;;;;;;;0.77;71.86;100469.31;2131987;82;31150;-65
2020/12/01 05:27:41;;;;;;;37.30;19.70;;;;;;;0.71;71.88;100468.92;2131020;82;32828;-65
2020/12/01 05:30:44;;;;;;;43.42;23.85;;;;;;;0.58;71.90;100478.20;2132517;82;29808;-67
2020/12/01 05:34:06;;;;;;;41.88;22.52;;;;;;;0.51;72.09;100484.41;2132623;82;27668;-72
2020/12/01 05:37:08;;;;;;;43.02;22.82;;;;;;;0.45;72.19;100477.84;2132444;82;28874;-67
2020/12/01 05:40:22;;;;;;;45.10;22.30;;;;;;;0.43;72.31;100481.81;2340944;76;27645;-63
2020/12/01 05:43:34;;;;;;;46.83;25.00;;;;;;;0.33;72.42;100488.02;2272857;77;27606;-66
2020/12/01 05:46:59;;;;;;;46.45;22.55;;;;;;;0.29;72.50;100490.22;2240067;78;28947;-70
2020/12/01 05:50:11;;;;;;;47.80;25.88;;;;;;;0.25;72.59;100491.97;2138512;82;30327;-73
2020/12/01 05:53:15;;;;;;;50.12;24.15;;;;;;;0.19;72.57;100496.39;2157312;81;33132;-65
2020/12/01 05:56:20;;;;;;;50.65;24.85;;;;;;;0.13;72.64;100489.39;2173137;80;28537;-65
2020/12/01 05:59:23;;;;;;;;;;;;;;;0.12;72.74;100481.95;2137795;82;27713;-67
2020/12/01 06:03:03;;;;;;;46.77;24.27;;;;;;;0.09;72.79;100487.22;2068678;83;28463;-66
2020/12/01 06:06:07;;;;;;;34.80;19.45;;;;;;;0.07;72.81;100495.56;2202314;80;31117;-69
2020/12/01 06:09:48;;;;;;;44.00;22.73;;;;;;;-0.02;72.80;100492.98;2135456;82;33118;-71
2020/12/01 06:13:35;;;;;;;49.37;24.80;;;;;;;-0.05;72.85;100490.34;2251357;77;29076;-66
2020/12/01 06:16:52;;;;;;;50.43;24.87;;;;;;;-0.14;72.96;100496.94;2217767;80;27654;-72
2020/12/01 06:19:59;;;;;;;42.90;23.83;;;;;;;-0.17;73.02;100501.78;2148499;81;28469;-75
2020/12/01 06:23:31;;;;;;;48.75;24.32;;;;;;;-0.20;73.10;100505.30;2144075;81;31874;-65
2020/12/01 06:27:30;;;;;;;44.80;22.75;;;;;;;-0.27;73.11;100497.42;2179014;80;33554;-68
2020/12/01 06:30:53;;;;;;;97.15;44.40;;;;;;;-0.32;73.27;100497.41;2178894;81;29345;-67
2020/12/01 06:34:35;;;;;;;76.15;37.53;;;;;;;-0.37;73.28;100505.77;2149543;81;28228;-66
2020/12/01 06:38:15;;;;;;;54.15;27.30;;;;;;;-0.42;73.37;100506.20;2154469;80;28613;-67
2020/12/01 06:41:21;;;;;;;73.47;38.50;;;;;;;-0.47;73.56;100503.13;2174011;81;31225;-67
2020/12/01 06:44:27;;;;;;;58.95;34.15;;;;;;;-0.51;73.51;100507.98;2117457;81;34064;-75
2020/12/01 06:47:33;;;;;;;43.58;21.62;;;;;;;-0.54;73.63;100510.61;2126796;81;28869;-68
2020/12/01 06:50:40;;;;;;;48.30;26.97;;;;;;;-0.57;73.74;100507.98;2125656;81;27708;-75
2020/12/01 06:53:42;;;;;;;46.53;24.35;;;;;;;-0.57;73.79;100516.30;2147190;81;28859;-75
2020/12/01 06:57:02;;;;;;;52.90;26.57;;;;;;;-0.55;73.84;100515.86;2147153;81;30693;-64
2020/12/01 07:00:07;;;;;;;61.05;29.65;;;;;;;-0.57;74.01;100514.98;2107449;82;32275;-70
2020/12/01 07:03:11;;;;;;;48.75;25.05;;;;;;;-0.60;74.08;100520.27;2069885;84;28657;-66
2020/12/01 07:06:29;;;;;;;47.00;24.80;;;;;;;-0.54;74.17;100518.51;2297566;77;36672;-69
2020/12/01 07:09:46;;;;;;;55.75;25.02;;;;;;;-0.54;74.25;100523.77;2228654;78;27678;-76
2020/12/01 07:13:15;;;;;;;50.43;26.62;;;;;;;-0.48;74.35;100524.20;2138405;81;28370;-68
2020/12/01 07:16:31;;;;;;;47.70;24.57;;;;;;;-0.37;74.53;100528.15;2123831;81;31165;-71
2020/12/01 07:19:41;;;;;;;50.05;23.90;;;;;;;-0.25;74.48;100526.80;2178872;81;34083;-66
2020/12/01 07:23:00;;;;;;;40.45;20.82;;;;;;;-0.11;74.55;100533.80;2179050;81;28532;-68
2020/12/01 07:26:40;;;;;;;48.42;23.40;;;;;;;0.06;74.39;100532.00;2149099;81;27653;-71
2020/12/01 07:30:09;;;;;;;44.15;23.32;;;;;;;0.19;74.28;100529.33;2149491;81;29714;-74
2020/12/01 07:36:44;;;;;;;46.43;25.33;;;;;;;0.63;73.93;100524.76;2279268;77;36714;-71
2020/12/01 07:39:55;;;;;;;;;;;;;;;0.75;74.04;100531.27;2214911;77;27717;-68
2020/12/01 07:43:02;;;;;;;41.37;21.85;;;;;;;0.90;73.54;100527.27;2207267;77;28802;-74
2020/12/01 07:46:05;;;;;;;49.50;23.57;;;;;;;0.97;73.26;100530.73;2211068;78;31243;-63
2020/12/01 07:49:09;;;;;;;45.98;25.77;;;;;;;1.00;73.23;100527.19;2175284;81;33113;-69
2020/12/01 07:52:34;;;;;;;39.60;19.98;;;;;;;1.05;73.27;100521.45;2138787;81;29891;-62
2020/12/01 07:55:59;;;;;;;37.73;21.30;;;;;;;1.11;72.96;100520.52;2184538;79;27744;-66
2020/12/01 07:59:12;;;;;;;48.08;24.52;;;;;;;1.12;72.72;100531.05;2180382;80;29786;-61
2020/12/01 08:02:17;;;;;;;36.58;19.23;;;;;;;1.13;72.81;100530.17;2162008;80;30932;-66
2020/12/01 08:05:22;;;;;;;44.40;22.87;;;;;;;1.14;72.48;100529.28;2182822;80;34050;-61
2020/12/01 08:08:25;;;;;;;37.88;21.02;;;;;;;1.13;72.54;100524.89;2161651;80;28634;-66
2020/12/01 08:11:28;;;;;;;38.00;20.88;;;;;;;1.16;72.55;100530.16;2164022;79;27763;-64
2020/12/01 08:14:31;;;;;;;39.67;22.60;;;;;;;1.20;72.57;100534.95;2144821;82;29657;-66
2020/12/01 08:17:35;;;;;;;42.13;23.20;;;;;;;1.23;72.58;100535.39;2135146;81;31430;-72
2020/12/01 08:20:38;;;;;;;41.58;20.85;;;;;;;1.27;72.55;100539.31;2162977;80;33120;-59
2020/12/01 08:23:41;;;;;;;39.88;21.97;;;;;;;1.30;72.40;100534.45;2179008;79;29826;-60
2020/12/01 08:26:44;;;;;;;41.88;21.52;;;;;;;1.36;72.28;100541.01;2119897;81;27791;-62
2020/12/01 08:29:48;;;;;;;37.38;19.20;;;;;;;1.38;71.99;100537.91;2158739;80;29664;-60
2020/12/01 08:32:53;;;;;;;44.45;22.80;;;;;;;1.43;72.11;100540.52;2148230;81;30926;-63
2020/12/01 08:36:13;;;;;;;33.10;16.87;;;;;;;1.48;72.12;100537.40;2112469;80;32681;-61
2020/12/01 08:40:03;;;;;;;44.88;24.72;;;;;;;1.60;72.19;100553.56;2139865;82;28852;-60
2020/12/01 08:43:17;;;;;;;37.73;20.72;;;;;;;1.75;72.21;100554.73;2101362;83;28139;-69
2020/12/01 08:46:27;;;;;;;39.70;19.60;;;;;;;1.92;71.69;100555.02;2136152;81;29704;-62
2020/12/01 08:49:41;;;;;;;38.40;20.92;;;;;;;2.03;71.89;100550.95;2100277;83;30930;-65
2020/12/01 08:53:16;;;;;;;39.30;21.73;;;;;;;2.17;71.88;100549.50;2342559;76;27675;-61
2020/12/01 08:56:27;;;;;;;34.60;19.30;;;;;;;2.22;71.73;100549.02;2258543;77;27628;-63
2020/12/01 08:59:46;;;;;;;38.13;19.90;;;;;;;2.36;71.08;100543.12;2292405;77;28824;-61
2020/12/01 09:02:50;;;;;;;35.70;20.97;;;;;;;2.42;70.81;100540.84;2294742;77;31139;-63
2020/12/01 09:05:53;;;;;;;37.70;21.80;;;;;;;2.47;70.95;100539.02;2183365;78;33789;-61
2020/12/01 09:09:03;;;;;;;36.83;20.55;;;;;;;2.57;70.84;100543.72;2231955;78;28545;-66
2020/12/01 09:22:29;;;;;;;40.52;22.13;;;;;;;3.04;70.09;100551.48;2219950;77;32705;-61
2020/12/01 09:25:31;;;;;;;36.28;22.13;;;;;;;3.21;69.54;100548.15;2230832;78;29278;-59
2020/12/01 09:28:35;;;;;;;50.60;24.43;;;;;;;3.38;69.77;100548.77;2279258;77;27703;-64
2020/12/01 09:31:40;;;;;;;39.23;22.27;;;;;;;3.48;68.97;100550.34;2245671;77;28916;-58
2020/12/01 09:34:42;;;;;;;44.55;23.20;;;;;;;3.57;69.08;100547.14;2220588;78;30962;-60
2020/12/01 09:37:45;;;;;;;47.65;26.02;;;;;;;3.67;68.70;100549.19;2137847;78;32902;-59
2020/12/01 09:40:50;;;;;;;45.45;24.05;;;;;;;3.75;68.86;100544.61;2197163;78;28072;-59
2020/12/01 09:44:04;;;;;;;;;;;;;;;3.81;68.08;100544.52;2222311;78;27786;-61
2020/12/01 09:47:04;;;;;;;45.30;26.20;;;;;;;3.88;68.27;100541.30;2250066;78;28819;-63
2020/12/01 09:50:29;;;;;;;39.33;23.12;;;;;;;3.91;67.34;100534.63;2164257;80;31135;-61
2020/12/01 09:56:51;;;;;;;45.50;25.15;;;;;;;3.88;66.60;100528.05;2168828;81;28696;-65
2020/12/01 10:24:17;;;;;;;38.02;23.25;;;;;;;3.61;65.96;100529.84;2144377;80;27791;-61
2020/12/01 10:36:18;;;;;;;43.17;23.90;;;;;;;3.72;66.33;100531.45;2188739;80;29987;-71
2020/12/01 10:39:31;;;;;;;50.73;27.57;;;;;;;3.79;65.85;100527.77;2209329;80;27791;-67
2020/12/01 10:42:33;;;;;;;42.93;24.95;;;;;;;3.80;65.70;100533.06;2147749;81;27629;-68
2020/12/01 10:45:36;;;;;;;50.23;29.00;;;;;;;3.87;66.08;100541.77;2112306;81;28892;-66
2020/12/01 10:48:39;;;;;;;45.48;26.62;;;;;;;3.95;66.29;100541.63;2147655;81;32553;-70
2020/12/01 10:51:42;;;;;;;38.33;23.02;;;;;;;4.07;66.22;100537.41;2116958;81;33167;-71
2020/12/01 10:54:45;;;;;;;53.30;29.63;;;;;;;4.15;65.48;100539.92;2119033;81;29246;-69
2020/12/01 10:57:49;;;;;;;44.23;25.15;;;;;;;4.17;65.63;100543.42;2120285;81;27683;-70
2020/12/01 11:00:52;;;;;;;46.95;24.98;;;;;;;4.20;65.09;100545.13;2147573;81;28908;-68
2020/12/01 11:03:55;;;;;;;37.28;22.75;;;;;;;4.21;64.95;100550.42;2147654;81;32067;-67
2020/12/01 11:06:58;;;;;;;45.08;24.75;;;;;;;4.22;64.93;100545.98;2118817;81;32995;-69
2020/12/01 11:10:00;;;;;;;46.15;27.07;;;;;;;4.26;65.22;100547.20;2147616;81;31134;-69
2020/12/01 11:13:03;;;;;;;37.90;23.40;;;;;;;4.25;64.76;100544.12;2147818;81;27674;-70
2020/12/01 11:16:06;;;;;;;36.65;22.20;;;;;;;4.22;64.49;100541.53;2147834;81;28948;-67
2020/12/01 11:19:09;;;;;;;38.98;23.67;;;;;;;4.22;64.49;100545.98;2112547;81;31150;-70
2020/12/01 11:22:13;;;;;;;36.50;22.17;;;;;;;4.19;64.28;100550.00;2123284;81;33933;-66
2020/12/01 11:25:16;;;;;;;40.33;21.82;;;;;;;4.14;63.77;100555.41;2147262;81;29574;-69
2020/12/01 11:28:19;;;;;;;46.15;24.25;;;;;;;4.05;63.72;100543.66;2118742;81;27691;-62
2020/12/01 11:31:22;;;;;;;38.50;22.35;;;;;;;4.04;64.43;100549.86;2097470;81;29579;-62
2020/12/01 11:34:24;;;;;;;36.93;21.90;;;;;;;4.02;63.89;100547.69;2123215;81;30928;-70
2020/12/01 11:37:28;;;;;;;49.55;28.90;;;;;;;3.95;63.90;100550.44;2147479;81;33061;-70
2020/12/01 11:40:31;;;;;;;38.40;23.35;;;;;;;3.93;64.33;100540.78;2120463;81;29573;-70
2020/12/01 11:43:33;;;;;;;42.88;24.05;;;;;;;3.94;63.95;100546.50;2147604;81;28165;-67
2020/12/01 11:46:36;;;;;;;41.50;23.50;;;;;;;3.92;64.03;100546.52;2123185;81;28811;-70
2020/12/01 11:49:38;;;;;;;40.08;23.45;;;;;;;3.91;63.92;100542.11;2123131;81;31166;-69
2020/12/01 11:52:41;;;;;;;40.45;22.07;;;;;;;3.91;64.14;100536.81;2118073;81;32909;-67
2020/12/01 11:55:44;;;;;;;37.35;21.82;;;;;;;3.91;64.01;100536.81;2146333;81;28660;-65
2020/12/01 11:58:46;;;;;;;38.58;22.80;;;;;;;3.94;64.43;100538.55;2116564;81;27662;-65
2020/12/01 12:01:49;;;;;;;39.90;23.35;;;;;;;3.99;64.49;100545.95;2116494;81;29641;-66
2020/12/01 12:04:52;;;;;;;39.00;22.32;;;;;;;4.04;64.18;100542.77;2146788;81;31142;-66
2020/12/01 12:07:55;;;;;;;36.68;20.70;;;;;;;4.07;64.20;100544.48;2122692;81;33815;-63
2020/12/01 12:10:58;;;;;;;41.00;21.97;;;;;;;4.09;63.73;100542.24;2120143;81;28866;-67
2020/12/01 12:14:01;;;;;;;35.80;21.80;;;;;;;4.12;63.94;100539.97;2146914;81;27612;-67
2020/12/01 12:17:04;;;;;;;35.63;21.55;;;;;;;4.14;63.42;100542.61;2123149;81;29727;-61
2020/12/01 12:20:06;;;;;;;37.58;20.08;;;;;;;4.15;63.73;100538.59;2122426;81;31290;-60
2020/12/01 12:23:09;;;;;;;34.90;20.62;;;;;;;4.11;62.41;100544.85;2176117;81;33562;-66
2020/12/01 12:26:13;;;;;;;39.53;22.10;;;;;;;4.08;63.06;100547.12;2116644;81;29023;-61
2020/12/01 12:29:15;;;;;;;37.35;21.90;;;;;;;4.08;63.54;100540.92;2176231;81;27700;-66
2020/12/01 12:32:18;;;;;;;37.38;21.48;;;;;;;4.09;63.33;100548.87;2120197;81;29226;-65
2020/12/01 12:35:22;;;;;;;37.53;22.52;;;;;;;4.11;62.92;100548.83;2117824;81;30923;-62
2020/12/01 12:38:25;;;;;;;44.25;21.57;;;;;;;4.08;63.05;100543.58;2171035;81;33987;-65
2020/12/01 12:41:28;;;;;;;36.25;20.32;;;;;;;4.08;63.35;100547.55;2124321;81;28611;-60
2020/12/01 12:44:30;;;;;;;43.65;22.35;;;;;;;4.07;63.08;100557.30;2148496;81;27661;-65
2020/12/01 12:47:33;;;;;;;37.48;22.10;;;;;;;4.10;63.43;100559.90;2148828;81;28705;-66
2020/12/01 12:50:36;;;;;;;37.25;19.82;;;;;;;4.13;63.27;100556.30;2124445;81;31810;-60
2020/12/01 12:53:38;;;;;;;33.45;20.30;;;;;;;4.16;63.27;100555.36;2118265;81;33552;-66
2020/12/01 12:56:41;;;;;;;39.08;21.90;;;;;;;4.17;63.20;100558.00;2124620;81;28870;-61
2020/12/01 12:59:43;;;;;;;37.25;22.13;;;;;;;4.15;63.05;100554.94;2099607;81;27671;-66
2020/12/01 13:02:46;;;;;;;40.88;23.60;;;;;;;4.15;63.18;100557.16;2118610;81;28808;-61
2020/12/01 13:05:49;;;;;;;43.00;23.15;;;;;;;4.14;63.23;100558.52;2148677;81;31145;-63
2020/12/01 13:08:51;;;;;;;32.83;18.35;;;;;;;4.15;63.55;100561.12;2124458;81;33190;-66
2020/12/01 13:11:54;;;;;;;38.50;22.65;;;;;;;4.17;63.28;100563.30;2173719;81;28930;-60
2020/12/01 13:14:56;;;;;;;39.95;22.60;;;;;;;4.18;63.46;100559.75;2148423;81;27790;-65
2020/12/01 13:18:01;;;;;;;38.58;23.87;;;;;;;4.20;63.30;100557.06;2124509;81;28838;-60
2020/12/01 13:21:04;;;;;;;39.90;24.52;;;;;;;4.18;63.11;100553.13;2124559;81;31318;-61
2020/12/01 13:24:08;;;;;;;41.28;24.75;;;;;;;4.19;63.11;100564.59;2148644;81;34017;-60
2020/12/01 13:27:11;;;;;;;41.13;24.60;;;;;;;4.17;63.02;100564.62;2118189;81;28632;-60
2020/12/01 13:30:17;;;;;;;40.10;23.57;;;;;;;4.14;63.05;100566.01;2149264;81;27690;-66
2020/12/01 13:33:20;;;;;;;40.55;26.37;;;;;;;4.14;63.05;100566.01;2124699;81;28962;-60
2020/12/01 13:36:26;;;;;;;40.65;24.05;;;;;;;4.10;63.07;100571.83;2122865;81;31904;-65
2020/12/01 13:39:28;;;;;;;43.95;24.47;;;;;;;4.07;62.53;100583.81;2120440;81;33125;-61
2020/12/01 13:42:31;;;;;;;40.95;22.95;;;;;;;4.02;63.00;100584.80;2171213;81;29921;-61
2020/12/01 13:45:33;;;;;;;51.88;23.35;;;;;;;3.97;62.99;100582.67;2146905;81;27781;-60
2020/12/01 13:48:36;;;;;;;40.63;22.73;;;;;;;3.94;63.18;100580.96;2116044;81;28599;-64
2020/12/01 13:51:39;;;;;;;41.50;22.45;;;;;;;3.91;63.32;100587.64;2099176;81;30980;-60
2020/12/01 13:54:42;;;;;;;32.63;20.25;;;;;;;3.89;63.44;100593.41;2096500;81;33129;-68
2020/12/01 13:57:45;;;;;;;35.52;21.07;;;;;;;3.86;63.19;100597.43;2118100;81;29753;-60
2020/12/01 14:00:48;;;;;;;46.20;25.35;;;;;;;3.79;63.35;100597.55;2122887;81;28267;-61
2020/12/01 14:03:51;;;;;;;42.45;22.62;;;;;;;3.78;63.54;100601.11;2122645;81;28611;-65
2020/12/01 14:06:55;;;;;;;43.02;23.00;;;;;;;3.75;63.63;100613.51;2090550;81;31240;-67
2020/12/01 14:09:58;;;;;;;43.73;23.42;;;;;;;3.72;63.67;100618.88;2118204;81;33852;-68
2020/12/01 14:13:01;;;;;;;40.03;23.57;;;;;;;3.72;63.77;100621.53;2121692;81;28710;-66
2020/12/01 14:16:05;;;;;;;49.13;24.02;;;;;;;3.73;63.92;100618.84;2119665;81;27594;-67
2020/12/01 14:19:08;;;;;;;50.43;25.35;;;;;;;3.72;63.87;100625.50;2146848;81;28817;-67
2020/12/01 14:22:11;;;;;;;43.30;23.90;;;;;;;3.70;64.13;100627.30;2122522;81;31939;-67
2020/12/01 14:25:17;;;;;;;43.33;25.50;;;;;;;3.69;64.05;100630.84;2146714;81;33088;-65
2020/12/01 14:28:20;;;;;;;;;;;;;;;3.67;64.26;100640.59;2125283;81;28643;-68
2020/12/01 14:31:22;;;;;;;50.40;25.32;;;;;;;3.66;64.22;100643.67;2146728;81;27541;-65
2020/12/01 14:34:25;;;;;;;50.20;25.75;;;;;;;3.59;64.22;100644.22;2146715;81;28829;-60
2020/12/01 14:37:28;;;;;;;46.28;24.30;;;;;;;3.54;64.30;100652.70;2122706;81;31281;-63
2020/12/01 14:40:31;;;;;;;47.58;25.37;;;;;;;3.48;64.38;100645.70;2146783;81;33944;-68
2020/12/01 14:43:35;;;;;;;47.88;26.82;;;;;;;3.42;64.48;100644.48;2107004;81;28545;-71
2020/12/01 14:47:06;;;;;;;45.98;24.65;;;;;;;3.35;64.54;100650.75;2086978;81;27736;-68
2020/12/01 14:50:55;;;;;;;52.27;25.50;;;;;;;3.28;64.53;100652.62;2163592;81;30149;-67
2020/12/01 14:54:20;;;;;;;53.95;26.97;;;;;;;3.19;64.61;100653.62;2096946;84;31160;-71
2020/12/01 14:57:37;;;;;;;51.40;27.58;;;;;;;3.10;64.70;100651.11;2093502;84;36868;-70
2020/12/01 15:00:57;;;;;;;57.00;26.70;;;;;;;3.02;64.80;100649.88;2098398;84;28834;-70
2020/12/01 15:04:09;;;;;;;46.23;25.88;;;;;;;2.95;64.90;100650.84;2044926;84;27654;-71
2020/12/01 15:07:32;;;;;;;52.37;26.23;;;;;;;2.91;64.98;100658.84;2343237;76;27686;-68
2020/12/01 15:11:06;;;;;;;48.40;25.65;;;;;;;2.78;65.04;100664.72;2287743;77;27612;-72
2020/12/01 15:14:09;;;;;;;57.45;27.27;;;;;;;2.68;65.13;100675.42;2258175;77;29771;-67